Time;durP1;ratioP1;P1;durP2;ratioP2;P2;SDS_P1;SDS_P2;PMS_P1;PMS_P2;Temp;Humidity;BMP_temperature;BMP_pressure;BME280_temperature;BME280_humidity;BME280_pressure;Samples;Min_cycle;Max_cycle;Signal;HPM_P1;HPM_P2
2021/04/30 00:01:18;;;;;;;1999.90;999.90;;;7.60;99.90;;;;;;5039454;28;20173;-82
2021/04/30 00:03:44;;;;;;;1999.90;999.90;;;7.60;99.90;;;;;;5021171;28;20264;-82
2021/04/30 00:06:10;;;;;;;1999.90;999.90;;;7.60;99.90;;;;;;5037272;28;20193;-82
2021/04/30 00:08:37;;;;;;;1999.90;999.90;;;7.60;99.90;;;;;;5038588;28;20193;-82
2021/04/30 00:11:03;;;;;;;1999.90;999.90;;;7.60;99.90;;;;;;5039029;28;20200;-82
2021/04/30 00:13:29;;;;;;;1999.90;999.90;;;7.50;99.90;;;;;;5037336;28;20587;-82
2021/04/30 00:15:54;;;;;;;1999.90;999.90;;;7.50;99.90;;;;;;5037642;28;20169;-82
2021/04/30 00:18:34;;;;;;;1999.90;999.90;;;7.50;99.90;;;;;;5117213;27;21145;-81
2021/04/30 00:21:01;;;;;;;1999.90;999.90;;;7.50;99.90;;;;;;5115542;28;20197;-81
2021/04/30 00:23:28;;;;;;;1999.90;999.90;;;7.50;99.90;;;;;;5097100;28;20170;-79
2021/04/30 00:25:56;;;;;;;1999.90;999.90;;;7.50;99.90;;;;;;5114181;28;20673;-80
2021/04/30 00:28:22;;;;;;;1999.90;999.90;;;7.50;99.90;;;;;;5115260;28;20182;-81
2021/04/30 00:30:52;;;;;;;1999.90;999.90;;;7.30;99.90;;;;;;5115242;28;20182;-81
2021/04/30 00:33:19;;;;;;;1999.90;999.90;;;7.30;99.90;;;;;;5098238;28;20548;-81
2021/04/30 00:35:45;;;;;;;1999.90;999.90;;;7.30;99.90;;;;;;5096161;28;20162;-81
2021/04/30 00:38:15;;;;;;;1999.90;999.90;;;7.40;99.90;;;;;;5114931;28;20195;-81
2021/04/30 00:40:41;;;;;;;1999.90;999.90;;;7.40;99.90;;;;;;5096729;28;20250;-81
2021/04/30 00:43:07;;;;;;;1999.90;999.90;;;7.40;99.90;;;;;;5096232;28;20673;-81
2021/04/30 00:45:33;;;;;;;1999.90;999.90;;;7.40;99.90;;;;;;5113978;28;20392;-81
2021/04/30 00:48:05;;;;;;;1999.90;999.90;;;7.40;99.90;;;;;;5095852;28;20186;-81
2021/04/30 00:50:32;;;;;;;1999.90;999.90;;;7.30;99.90;;;;;;5096783;28;20158;-81
2021/04/30 00:52:58;;;;;;;1999.90;999.90;;;7.20;99.90;;;;;;5115026;28;20170;-81
2021/04/30 00:55:24;;;;;;;1999.90;999.90;;;7.30;99.90;;;;;;5114973;28;20170;-81
2021/04/30 00:57:57;;;;;;;1999.90;999.90;;;7.30;99.90;;;;;;5114504;28;20202;-81
2021/04/30 01:00:25;;;;;;;1999.90;999.90;;;7.20;99.90;;;;;;5096046;28;20427;-80
2021/04/30 01:02:51;;;;;;;1999.90;999.90;;;7.10;99.90;;;;;;5113640;28;20595;-81
2021/04/30 01:05:17;;;;;;;1999.90;999.90;;;7.10;99.90;;;;;;5114600;28;20195;-81
2021/04/30 01:07:43;;;;;;;1999.90;999.90;;;7.10;99.90;;;;;;5114173;28;20203;-81
2021/04/30 01:10:10;;;;;;;1999.90;999.90;;;7.10;99.90;;;;;;5096096;28;20167;-81
2021/04/30 01:12:36;;;;;;;1999.90;999.90;;;7.10;99.90;;;;;;5113818;28;20163;-80
2021/04/30 01:15:06;;;;;;;1999.90;999.90;;;7.20;99.90;;;;;;5114186;28;20648;-81
2021/04/30 01:17:34;;;;;;;1999.90;999.90;;;7.20;99.90;;;;;;5113016;28;20229;-81
2021/04/30 01:20:01;;;;;;;1999.90;999.90;;;7.00;99.90;;;;;;5113809;28;20155;-81
2021/04/30 01:22:40;;;;;;;1999.90;999.90;;;7.10;99.90;;;;;;5113495;28;20212;-80
2021/04/30 01:25:09;;;;;;;1999.90;999.90;;;7.10;99.90;;;;;;5113870;28;20574;-81
2021/04/30 01:27:35;;;;;;;1999.90;999.90;;;7.00;99.90;;;;;;5113323;28;20598;-81
2021/04/30 01:30:03;;;;;;;1999.90;999.90;;;7.00;99.90;;;;;;5099411;28;20175;-81
2021/04/30 01:32:28;;;;;;;1999.90;999.90;;;6.90;99.90;;;;;;5099894;28;20163;-81
2021/04/30 01:34:54;;;;;;;1999.90;999.90;;;6.80;99.90;;;;;;5099865;28;20638;-81
2021/04/30 01:37:20;;;;;;;1999.90;999.90;;;6.90;99.90;;;;;;5099855;28;20620;-81
2021/04/30 01:39:48;;;;;;;1999.90;999.90;;;6.80;99.90;;;;;;5099693;28;20159;-81
2021/04/30 01:42:14;;;;;;;1999.90;999.90;;;6.70;99.90;;;;;;5100066;28;20442;-81
2021/04/30 01:44:40;;;;;;;1999.90;999.90;;;6.60;99.90;;;;;;5081967;28;20254;-82
2021/04/30 01:47:05;;;;;;;1999.90;999.90;;;6.70;99.90;;;;;;5099816;28;20182;-81
2021/04/30 01:49:31;;;;;;;1999.90;999.90;;;6.70;99.90;;;;;;5100380;28;20167;-81
2021/04/30 01:51:57;;;;;;;1999.90;999.90;;;6.70;99.90;;;;;;5080805;28;20213;-81
2021/04/30 01:54:22;;;;;;;1999.90;999.90;;;6.70;99.90;;;;;;5099884;28;20193;-80
2021/04/30 01:56:49;;;;;;;1999.90;999.90;;;6.80;99.90;;;;;;5081774;28;20202;-81
2021/04/30 01:59:15;;;;;;;1999.90;999.90;;;6.80;99.90;;;;;;5099129;28;20160;-82
2021/04/30 02:01:40;;;;;;;1999.90;999.90;;;6.80;99.90;;;;;;5099335;28;20209;-81
2021/04/30 02:04:10;;;;;;;1999.90;999.90;;;6.70;99.90;;;;;;5099393;28;20163;-81
2021/04/30 02:06:39;;;;;;;1999.90;999.90;;;6.70;99.90;;;;;;5099314;28;20167;-81
2021/04/30 02:09:07;;;;;;;1999.90;999.90;;;6.70;99.90;;;;;;5098878;28;20174;-80
2021/04/30 02:11:34;;;;;;;1999.90;999.90;;;6.80;99.90;;;;;;5081230;28;20167;-80
2021/04/30 02:14:00;;;;;;;1999.90;999.90;;;6.80;99.90;;;;;;5099220;28;20171;-80
2021/04/30 02:16:26;;;;;;;1999.90;999.90;;;6.90;99.90;;;;;;5081195;28;20172;-81
2021/04/30 02:18:51;;;;;;;1999.90;999.90;;;6.70;99.90;;;;;;5099742;28;20174;-82
2021/04/30 02:21:17;;;;;;;1999.90;999.90;;;6.70;99.90;;;;;;5099359;28;20227;-81
2021/04/30 02:23:47;;;;;;;1999.90;999.90;;;6.70;99.90;;;;;;5099373;28;20704;-81
2021/04/30 02:26:16;;;;;;;1999.90;999.90;;;6.60;99.90;;;;;;5099348;28;20237;-81
2021/04/30 02:28:45;;;;;;;1999.90;999.90;;;6.70;99.90;;;;;;5081730;28;20187;-81
2021/04/30 02:31:12;;;;;;;1999.90;999.90;;;6.70;99.90;;;;;;5082884;28;20166;-79
2021/04/30 02:33:37;;;;;;;1999.90;999.90;;;6.60;99.90;;;;;;5103267;28;20170;-81
2021/04/30 02:36:03;;;;;;;1999.90;999.90;;;6.50;99.90;;;;;;5100522;28;20155;-81
2021/04/30 02:38:31;;;;;;;1999.90;999.90;;;6.50;99.90;;;;;;5081604;28;20209;-81
2021/04/30 02:40:57;;;;;;;1999.90;999.90;;;6.50;99.90;;;;;;5080382;28;20492;-81
2021/04/30 02:43:23;;;;;;;1999.90;999.90;;;6.60;99.90;;;;;;5099962;28;20164;-81
2021/04/30 02:45:51;;;;;;;1999.90;999.90;;;6.50;99.90;;;;;;5099020;28;20233;-81
2021/04/30 02:48:25;;;;;;;1999.90;999.90;;;6.40;99.90;;;;;;5081425;28;20244;-81
2021/04/30 02:50:51;;;;;;;1999.90;999.90;;;6.20;99.90;;;;;;5099196;28;20143;-81
2021/04/30 02:53:17;;;;;;;1999.90;999.90;;;6.20;99.90;;;;;;5099753;28;20194;-81
2021/04/30 02:55:43;;;;;;;1999.90;999.90;;;6.10;99.90;;;;;;5080758;28;20194;-81
2021/04/30 02:58:11;;;;;;;1999.90;999.90;;;6.00;99.90;;;;;;5080842;28;20202;-81
2021/04/30 03:00:37;;;;;;;1999.90;999.90;;;6.00;99.90;;;;;;5098933;28;20518;-81
2021/04/30 03:03:05;;;;;;;1999.90;999.90;;;6.10;99.90;;;;;;5080326;28;20167;-81
2021/04/30 03:05:32;;;;;;;1999.90;999.90;;;6.20;99.90;;;;;;5098826;28;20393;-81
2021/04/30 03:07:57;;;;;;;1999.90;999.90;;;6.10;99.90;;;;;;5098611;28;20523;-81
2021/04/30 03:10:23;;;;;;;1999.90;999.90;;;6.10;99.90;;;;;;5099093;28;20174;-81
2021/04/30 03:12:49;;;;;;;1999.90;999.90;;;6.10;99.90;;;;;;5099216;28;20401;-81
2021/04/30 03:15:15;;;;;;;1999.90;999.90;;;6.30;99.90;;;;;;5098571;28;20185;-81
2021/04/30 03:17:45;;;;;;;1999.90;999.90;;;6.40;99.90;;;;;;5080139;28;20556;-81
2021/04/30 03:20:12;;;;;;;1999.90;999.90;;;6.50;99.90;;;;;;5098481;28;20530;-81
2021/04/30 03:22:38;;;;;;;1999.90;999.90;;;6.50;99.90;;;;;;5098607;28;20188;-81
2021/04/30 03:25:05;;;;;;;1999.90;999.90;;;6.50;99.90;;;;;;5098996;28;20237;-81
2021/04/30 03:27:31;;;;;;;1999.90;999.90;;;6.60;99.90;;;;;;5097964;28;20424;-81
2021/04/30 03:29:59;;;;;;;1999.90;999.90;;;6.60;99.90;;;;;;5098316;28;20646;-81
2021/04/30 03:32:25;;;;;;;1999.90;999.90;;;6.60;99.90;;;;;;5097632;28;20170;-81
2021/04/30 03:34:52;;;;;;;1999.90;999.90;;;6.70;99.90;;;;;;5097988;28;20238;-81
2021/04/30 03:37:18;;;;;;;1999.90;999.90;;;6.70;99.90;;;;;;5080026;28;20452;-80
2021/04/30 03:39:44;;;;;;;1999.90;999.90;;;6.80;99.90;;;;;;5080609;28;20185;-81
2021/04/30 03:42:09;;;;;;;1999.90;999.90;;;6.80;99.90;;;;;;5097619;28;20762;-81
2021/04/30 03:44:35;;;;;;;1999.90;999.90;;;6.90;99.90;;;;;;5097641;28;20166;-80
2021/04/30 03:47:01;;;;;;;1999.90;999.90;;;7.00;99.90;;;;;;5097571;28;20220;-81
2021/04/30 03:49:26;;;;;;;1999.90;999.90;;;6.90;99.90;;;;;;5097580;28;20174;-80
2021/04/30 03:51:52;;;;;;;1999.90;999.90;;;7.00;99.90;;;;;;5079060;28;20931;-80
2021/04/30 03:54:18;;;;;;;1999.90;999.90;;;7.00;99.90;;;;;;5097208;28;20174;-80
2021/04/30 03:56:44;;;;;;;1999.90;999.90;;;6.90;99.90;;;;;;5097750;28;20187;-80
2021/04/30 03:59:10;;;;;;;1999.90;999.90;;;6.90;99.90;;;;;;5097277;28;20163;-80
2021/04/30 04:01:35;;;;;;;1999.90;999.90;;;6.90;99.90;;;;;;5079661;28;20224;-80
2021/04/30 04:04:01;;;;;;;1999.90;999.90;;;6.90;99.90;;;;;;5097536;28;20170;-80
2021/04/30 04:06:27;;;;;;;1999.90;999.90;;;7.00;99.90;;;;;;5079310;28;20178;-80
2021/04/30 04:08:56;;;;;;;1999.90;999.90;;;6.90;99.90;;;;;;5096924;28;20401;-80
2021/04/30 04:11:22;;;;;;;1999.90;999.90;;;6.90;99.90;;;;;;5123774;22;20216;-80
2021/04/30 04:13:47;;;;;;;1999.90;999.90;;;6.90;99.90;;;;;;5057170;28;20160;-80
2021/04/30 04:16:13;;;;;;;1999.90;999.90;;;7.00;99.90;;;;;;5056788;28;20256;-80
2021/04/30 04:18:38;;;;;;;1999.90;999.90;;;7.00;99.90;;;;;;5055131;28;20254;-80
2021/04/30 04:21:04;;;;;;;1999.90;999.90;;;7.00;99.90;;;;;;5056502;28;20230;-80
2021/04/30 04:23:30;;;;;;;1999.90;999.90;;;6.80;99.90;;;;;;5056825;28;20233;-80
2021/04/30 04:25:56;;;;;;;1999.90;999.90;;;6.80;99.90;;;;;;5056670;28;20222;-80
2021/04/30 04:28:21;;;;;;;1999.90;999.90;;;6.90;99.90;;;;;;5056161;28;20189;-80
2021/04/30 04:30:47;;;;;;;1999.90;999.90;;;7.00;99.90;;;;;;5055885;28;20256;-80
2021/04/30 04:33:14;;;;;;;1999.90;999.90;;;6.90;99.90;;;;;;5056266;28;20172;-80
2021/04/30 04:35:40;;;;;;;1999.90;999.90;;;7.00;99.90;;;;;;5055530;28;20168;-80
2021/04/30 04:38:08;;;;;;;1999.90;999.90;;;7.00;99.90;;;;;;5056268;28;20192;-80
2021/04/30 04:40:34;;;;;;;1999.90;999.90;;;7.00;99.90;;;;;;5056782;28;20184;-80
2021/04/30 04:42:59;;;;;;;1999.90;999.90;;;7.00;99.90;;;;;;5055338;28;20222;-80
2021/04/30 04:45:25;;;;;;;1999.90;999.90;;;7.00;99.90;;;;;;5055386;28;20244;-80
2021/04/30 04:47:51;;;;;;;1999.90;999.90;;;7.00;99.90;;;;;;5056686;28;20184;-80
2021/04/30 04:50:16;;;;;;;1999.90;999.90;;;7.00;99.90;;;;;;5056369;28;20214;-80
2021/04/30 04:52:43;;;;;;;1999.90;999.90;;;7.00;99.90;;;;;;5056089;28;20179;-81
2021/04/30 04:55:11;;;;;;;1999.90;999.90;;;7.10;99.90;;;;;;5056827;28;20169;-80
2021/04/30 04:57:38;;;;;;;1999.90;999.90;;;7.10;99.90;;;;;;5056470;28;20279;-80
2021/04/30 05:00:07;;;;;;;1999.90;999.90;;;7.10;99.90;;;;;;5056125;28;20218;-80
2021/04/30 05:02:33;;;;;;;1999.90;999.90;;;7.10;99.90;;;;;;5055108;28;20580;-80
2021/04/30 05:04:59;;;;;;;1999.90;999.90;;;7.20;99.90;;;;;;5059845;28;20160;-80
2021/04/30 05:07:24;;;;;;;1999.90;999.90;;;7.20;99.90;;;;;;5058956;28;20488;-80
2021/04/30 05:09:50;;;;;;;1999.90;999.90;;;7.20;99.90;;;;;;5060146;28;20403;-81
2021/04/30 05:12:16;;;;;;;1999.90;999.90;;;7.30;99.90;;;;;;5058766;28;20194;-81
2021/04/30 05:14:44;;;;;;;1999.90;999.90;;;7.30;99.90;;;;;;5060418;28;20173;-81
2021/04/30 05:17:11;;;;;;;1999.90;999.90;;;7.30;99.90;;;;;;5060109;28;20989;-81
2021/04/30 05:19:36;;;;;;;1999.90;999.90;;;7.20;99.90;;;;;;5060299;28;20168;-80
2021/04/30 05:22:07;;;;;;;1999.90;999.90;;;7.20;99.90;;;;;;5059205;28;20172;-81
2021/04/30 05:24:34;;;;;;;1999.90;999.90;;;7.30;99.90;;;;;;5060282;28;20157;-81
2021/04/30 05:26:59;;;;;;;1999.90;999.90;;;7.30;99.90;;;;;;5059875;28;20199;-81
2021/04/30 05:29:25;;;;;;;1999.90;999.90;;;7.30;99.90;;;;;;5060354;28;20168;-81
2021/04/30 05:31:51;;;;;;;1999.90;999.90;;;7.30;99.90;;;;;;5059906;28;20171;-81
2021/04/30 05:34:16;;;;;;;1999.90;999.90;;;7.30;99.90;;;;;;5058380;28;20196;-81
2021/04/30 05:36:42;;;;;;;1999.90;999.90;;;7.30;99.90;;;;;;5059945;28;20193;-80
2021/04/30 05:39:08;;;;;;;1999.90;999.90;;;7.40;99.90;;;;;;5059572;28;20165;-81
2021/04/30 05:41:33;;;;;;;1999.90;999.90;;;7.30;99.90;;;;;;5059728;28;20248;-81
2021/04/30 05:43:59;;;;;;;1999.90;999.90;;;7.40;99.90;;;;;;5060216;28;20651;-79
2021/04/30 05:46:25;;;;;;;1999.90;999.90;;;7.30;99.90;;;;;;5061430;28;20161;-80
2021/04/30 05:48:51;;;;;;;1999.90;999.90;;;7.30;99.90;;;;;;5061051;28;20169;-80
2021/04/30 05:51:16;;;;;;;1999.90;999.90;;;7.30;99.90;;;;;;5059550;28;20228;-81
2021/04/30 05:53:42;;;;;;;1999.90;999.90;;;7.30;99.90;;;;;;5059435;28;20168;-80
2021/04/30 05:56:08;;;;;;;1999.90;999.90;;;7.40;99.90;;;;;;5058739;28;20263;-81
2021/04/30 05:58:33;;;;;;;1999.90;999.90;;;7.50;99.90;;;;;;5060005;28;20200;-81
2021/04/30 06:00:59;;;;;;;1999.90;999.90;;;7.50;99.90;;;;;;5059384;28;20168;-81
2021/04/30 06:03:25;;;;;;;1999.90;999.90;;;7.50;99.90;;;;;;5059567;28;20165;-81
2021/04/30 06:05:51;;;;;;;1999.90;999.90;;;7.50;99.90;;;;;;5057659;28;20168;-80
2021/04/30 06:08:16;;;;;;;1999.90;999.90;;;7.50;99.90;;;;;;5057864;28;20502;-81
2021/04/30 06:10:42;;;;;;;1999.90;999.90;;;7.60;99.90;;;;;;5057975;28;20194;-81
2021/04/30 06:13:08;;;;;;;1999.90;999.90;;;7.60;99.90;;;;;;5059270;28;20199;-81
2021/04/30 06:15:34;;;;;;;1999.90;999.90;;;7.70;99.90;;;;;;5058090;28;20195;-81
2021/04/30 06:18:03;;;;;;;1999.90;999.90;;;7.60;99.90;;;;;;5057488;28;20268;-81
2021/04/30 06:20:28;;;;;;;1999.90;999.90;;;7.60;99.90;;;;;;5059424;28;20161;-81
2021/04/30 06:22:54;;;;;;;1999.90;999.90;;;7.70;99.90;;;;;;5057950;28;20184;-81
2021/04/30 06:25:20;;;;;;;1999.90;999.90;;;7.90;99.90;;;;;;5058696;28;20161;-80
2021/04/30 06:27:46;;;;;;;1999.90;999.90;;;7.90;99.90;;;;;;5057382;28;20446;-79
2021/04/30 06:30:13;;;;;;;1999.90;999.90;;;7.80;99.90;;;;;;5059194;28;20199;-77
2021/04/30 06:32:39;;;;;;;1999.90;999.90;;;8.00;99.90;;;;;;5058957;28;20407;-78
2021/04/30 06:35:07;;;;;;;1999.90;999.90;;;8.10;99.90;;;;;;5057797;28;20185;-77
2021/04/30 06:37:33;;;;;;;1999.90;999.90;;;8.10;99.90;;;;;;5058071;28;20200;-79
2021/04/30 06:39:59;;;;;;;1999.90;999.90;;;8.10;99.90;;;;;;5059325;28;20210;-78
2021/04/30 06:42:24;;;;;;;1999.90;999.90;;;8.20;99.90;;;;;;5060047;28;20164;-78
2021/04/30 06:44:51;;;;;;;1999.90;999.90;;;8.10;99.90;;;;;;5059759;28;20513;-79
2021/04/30 06:47:16;;;;;;;1999.90;999.90;;;8.10;99.90;;;;;;5059015;28;20180;-77
2021/04/30 06:49:42;;;;;;;1999.90;999.90;;;8.10;99.90;;;;;;5059857;28;20157;-78
2021/04/30 06:52:08;;;;;;;1999.90;999.90;;;8.10;99.90;;;;;;5059285;28;20164;-78
2021/04/30 06:54:33;;;;;;;1999.90;999.90;;;8.20;99.90;;;;;;5058747;28;20172;-77
2021/04/30 06:56:59;;;;;;;1999.90;999.90;;;8.30;99.90;;;;;;5058920;28;20275;-76
2021/04/30 06:59:27;;;;;;;1999.90;999.90;;;8.30;99.90;;;;;;5059784;28;20648;-77
2021/04/30 07:01:52;;;;;;;1999.90;999.90;;;8.40;99.90;;;;;;5059655;28;20148;-78
2021/04/30 07:04:19;;;;;;;1999.90;999.90;;;8.40;99.90;;;;;;5059263;28;20683;-78
2021/04/30 07:06:45;;;;;;;1999.90;999.90;;;8.40;99.90;;;;;;5057867;28;20210;-79
2021/04/30 07:09:10;;;;;;;1999.90;999.90;;;8.50;99.90;;;;;;5055997;28;20176;-78
2021/04/30 07:11:36;;;;;;;1999.90;999.90;;;8.60;99.90;;;;;;5057232;28;20429;-80
2021/04/30 07:14:04;;;;;;;1999.90;999.90;;;8.60;99.90;;;;;;5057436;28;20552;-81
2021/04/30 07:16:30;;;;;;;1999.90;999.90;;;8.60;99.90;;;;;;5057255;28;20648;-80
2021/04/30 07:18:55;;;;;;;1999.90;999.90;;;8.70;99.90;;;;;;5057587;28;20224;-80
2021/04/30 07:21:21;;;;;;;1999.90;999.90;;;8.70;99.90;;;;;;5057718;28;20414;-80
2021/04/30 07:23:47;;;;;;;1999.90;999.90;;;8.80;99.90;;;;;;5056621;28;20165;-81
2021/04/30 07:26:13;;;;;;;1999.90;999.90;;;8.70;99.90;;;;;;5057886;28;20474;-81
2021/04/30 07:28:39;;;;;;;1999.90;999.90;;;8.70;99.90;;;;;;5055988;28;20449;-80
2021/04/30 07:31:04;;;;;;;1999.90;999.90;;;8.80;99.90;;;;;;5057902;28;20415;-79
2021/04/30 07:33:30;;;;;;;1999.90;999.90;;;9.00;99.90;;;;;;5056451;28;20183;-80
2021/04/30 07:35:56;;;;;;;1999.90;999.90;;;9.10;99.90;;;;;;5057273;28;20172;-80
2021/04/30 07:38:22;;;;;;;1999.90;999.90;;;9.10;99.90;;;;;;5057448;28;20224;-80
2021/04/30 07:40:47;;;;;;;1999.90;999.90;;;9.10;99.90;;;;;;5058092;28;20192;-80
2021/04/30 07:43:15;;;;;;;1999.90;999.90;;;9.20;99.90;;;;;;5057958;28;20395;-80
2021/04/30 07:45:43;;;;;;;1999.90;999.90;;;9.10;99.90;;;;;;5057233;28;20156;-80
2021/04/30 07:48:10;;;;;;;1999.90;999.90;;;9.10;99.90;;;;;;5056096;28;20598;-80
2021/04/30 07:50:37;;;;;;;1999.90;999.90;;;9.00;99.90;;;;;;5057675;28;20164;-80
2021/04/30 07:53:03;;;;;;;1999.90;999.90;;;9.10;99.90;;;;;;5056010;28;20168;-80
2021/04/30 07:55:29;;;;;;;1999.90;999.90;;;9.10;99.90;;;;;;5057453;28;20625;-81
2021/04/30 07:57:55;;;;;;;1999.90;999.90;;;9.20;99.90;;;;;;5057371;28;20474;-80
2021/04/30 08:00:24;;;;;;;1999.90;999.90;;;9.20;99.90;;;;;;5057593;28;20169;-81
2021/04/30 08:02:51;;;;;;;1999.90;999.90;;;9.20;99.90;;;;;;5058531;28;20160;-80
2021/04/30 08:05:17;;;;;;;1999.90;999.90;;;9.30;99.90;;;;;;5057711;28;20243;-81
2021/04/30 08:07:43;;;;;;;1999.90;999.90;;;9.30;99.90;;;;;;5055793;28;20199;-81
2021/04/30 08:10:10;;;;;;;1999.90;999.90;;;9.30;99.90;;;;;;5056556;28;21786;-80
2021/04/30 08:12:36;;;;;;;1999.90;999.90;;;9.20;99.90;;;;;;5057376;28;20179;-81
2021/04/30 08:15:02;;;;;;;1999.90;999.90;;;9.10;99.90;;;;;;5057840;28;20176;-81
2021/04/30 08:17:28;;;;;;;1999.90;999.90;;;9.10;99.90;;;;;;5056276;28;20522;-81
2021/04/30 08:19:57;;;;;;;1999.90;999.90;;;9.20;99.90;;;;;;5057094;28;20188;-81
2021/04/30 08:22:24;;;;;;;1999.90;999.90;;;9.10;99.90;;;;;;5057312;28;20185;-80
2021/04/30 08:24:49;;;;;;;1999.90;999.90;;;9.20;99.90;;;;;;5055757;28;20204;-80
2021/04/30 08:27:15;;;;;;;1999.90;999.90;;;9.20;99.90;;;;;;5056561;28;20203;-81
2021/04/30 08:29:41;;;;;;;1999.90;999.90;;;9.20;99.90;;;;;;5057456;28;20168;-80
2021/04/30 08:32:06;;;;;;;1999.90;999.90;;;9.20;99.90;;;;;;5057901;28;20164;-80
2021/04/30 08:34:32;;;;;;;1999.90;999.90;;;9.20;99.90;;;;;;5057990;28;20241;-81
2021/04/30 08:36:57;;;;;;;1999.90;999.90;;;9.20;99.90;;;;;;5057432;28;20200;-81
2021/04/30 08:39:23;;;;;;;1999.90;999.90;;;9.30;99.90;;;;;;5059591;28;20161;-81
2021/04/30 08:41:51;;;;;;;1999.90;999.90;;;9.20;99.90;;;;;;5059940;28;20173;-81
2021/04/30 08:44:16;;;;;;;1999.90;999.90;;;9.30;99.90;;;;;;5061123;28;20168;-81
2021/04/30 08:46:46;;;;;;;1999.90;999.90;;;9.30;99.90;;;;;;5061421;28;20168;-81
2021/04/30 08:49:12;;;;;;;1999.90;999.90;;;9.30;99.90;;;;;;5059421;28;20177;-81
2021/04/30 08:51:39;;;;;;;1999.90;999.90;;;9.30;99.90;;;;;;5059942;28;20200;-80
2021/04/30 08:54:05;;;;;;;1999.90;999.90;;;9.30;99.90;;;;;;5061325;28;20165;-80
2021/04/30 08:56:33;;;;;;;1999.90;999.90;;;9.30;99.90;;;;;;5059644;28;20169;-80
2021/04/30 08:59:00;;;;;;;1999.90;999.90;;;9.40;99.90;;;;;;5060787;28;20176;-80
2021/04/30 09:01:26;;;;;;;1999.90;999.90;;;9.50;99.90;;;;;;5060862;28;20160;-80
2021/04/30 09:03:52;;;;;;;1999.90;999.90;;;9.60;99.90;;;;;;5060561;28;20229;-81
2021/04/30 09:06:42;;;;;;;1999.90;999.90;;;9.60;99.90;;;;;;5060526;28;20161;-80
2021/04/30 09:09:10;;;;;;;1999.90;999.90;;;9.60;99.90;;;;;;5059292;28;20149;-80
2021/04/30 09:11:39;;;;;;;1999.90;999.90;;;9.80;99.90;;;;;;5059516;28;20188;-80
2021/04/30 09:14:31;;;;;;;1999.90;999.90;;;9.90;99.90;;;;;;5059096;28;20255;-80
2021/04/30 09:16:57;;;;;;;1999.90;999.90;;;10.00;99.90;;;;;;5060597;28;20671;-80
2021/04/30 09:19:34;;;;;;;1999.90;999.90;;;10.10;99.90;;;;;;5060290;28;20648;-80
2021/04/30 09:22:06;;;;;;;1999.90;999.90;;;10.10;99.90;;;;;;5060414;28;20628;-81
2021/04/30 09:24:32;;;;;;;1999.90;999.90;;;10.20;99.90;;;;;;5059365;28;20508;-81
2021/04/30 09:26:58;;;;;;;1999.90;999.90;;;10.30;99.90;;;;;;5060726;28;20192;-81
2021/04/30 09:29:27;;;;;;;1999.90;999.90;;;10.40;99.90;;;;;;5058922;28;20255;-81
2021/04/30 09:31:54;;;;;;;1999.90;999.90;;;10.50;99.90;;;;;;5060960;28;20195;-81
2021/04/30 09:34:21;;;;;;;1999.90;999.90;;;10.60;99.90;;;;;;5060020;28;20513;-81
2021/04/30 09:37:13;;;;;;;1999.90;999.90;;;10.80;99.90;;;;;;5058538;28;20290;-80
2021/04/30 09:39:52;;;;;;;1999.90;999.90;;;10.80;99.90;;;;;;5059923;28;20227;-80
2021/04/30 09:42:20;;;;;;;1999.90;999.90;;;10.90;99.90;;;;;;5059879;28;20156;-80
2021/04/30 09:44:49;;;;;;;1999.90;999.90;;;10.90;99.90;;;;;;5060251;28;20628;-80
2021/04/30 09:47:23;;;;;;;1999.90;999.90;;;11.00;99.90;;;;;;5060033;28;20270;-80
2021/04/30 09:49:52;;;;;;;1999.90;999.90;;;11.00;99.90;;;;;;5059394;28;20163;-81
2021/04/30 09:52:20;;;;;;;1999.90;999.90;;;11.00;99.90;;;;;;5060075;28;20171;-80
2021/04/30 09:54:47;;;;;;;1999.90;999.90;;;11.10;99.90;;;;;;5059628;28;20644;-81
2021/04/30 09:57:18;;;;;;;1999.90;999.90;;;11.20;99.90;;;;;;5058484;28;20286;-81
2021/04/30 09:59:56;;;;;;;1999.90;999.90;;;11.40;99.90;;;;;;5060665;28;20149;-80
2021/04/30 10:02:26;;;;;;;1999.90;999.90;;;11.60;99.90;;;;;;5060562;28;20167;-80
2021/04/30 10:04:55;;;;;;;1999.90;999.90;;;11.80;99.90;;;;;;5059688;28;20145;-81
2021/04/30 10:07:32;;;;;;;1999.90;999.90;;;11.90;98.80;;;;;;5058227;28;20192;-80
2021/04/30 10:10:11;;;;;;;1999.90;999.90;;;12.00;97.90;;;;;;5059664;28;20206;-80
2021/04/30 10:12:42;;;;;;;1999.90;999.90;;;11.90;99.00;;;;;;5057700;28;20648;-80
2021/04/30 10:15:10;;;;;;;1999.90;999.90;;;11.90;99.80;;;;;;5059445;28;20243;-81
2021/04/30 10:17:37;;;;;;;1999.90;999.90;;;11.80;98.50;;;;;;5059479;28;20224;-80
2021/04/30 10:20:04;;;;;;;1999.90;999.90;;;11.80;99.00;;;;;;5057746;28;20173;-80
2021/04/30 10:22:33;;;;;;;1999.90;999.90;;;11.90;98.30;;;;;;5058234;28;20709;-80
2021/04/30 10:24:59;;;;;;;1999.90;999.90;;;11.90;97.50;;;;;;5058942;28;20314;-80
2021/04/30 10:27:33;;;;;;;1999.90;999.90;;;12.00;98.60;;;;;;5074780;28;20556;-80
2021/04/30 10:30:14;;;;;;;1999.90;999.90;;;12.20;97.60;;;;;;5059070;28;20153;-78
2021/04/30 10:33:17;;;;;;;1999.90;999.90;;;12.30;97.30;;;;;;5059804;28;20211;-78
2021/04/30 10:36:05;;;;;;;1999.90;999.90;;;12.30;96.20;;;;;;5059634;28;20192;-78
2021/04/30 10:38:39;;;;;;;1999.90;999.90;;;12.30;96.60;;;;;;5057730;28;20206;-78
2021/04/30 10:41:08;;;;;;;1999.90;999.90;;;12.30;96.50;;;;;;5058808;28;20184;-78
2021/04/30 10:43:34;;;;;;;1999.90;999.90;;;12.30;97.80;;;;;;5057623;28;20251;-78
2021/04/30 10:46:23;;;;;;;1999.90;999.90;;;12.30;96.00;;;;;;5057923;28;20160;-79
2021/04/30 10:49:04;;;;;;;1999.90;999.90;;;12.00;96.90;;;;;;5050627;28;20207;-80
2021/04/30 10:51:32;;;;;;;1999.90;999.90;;;11.90;97.10;;;;;;5057646;28;20535;-80
2021/04/30 10:54:29;;;;;;;1999.90;999.90;;;11.70;97.10;;;;;;5057195;28;20164;-80
2021/04/30 10:57:19;;;;;;;1999.90;999.90;;;11.70;98.10;;;;;;5058404;28;20200;-80
2021/04/30 10:59:45;;;;;;;1999.90;999.90;;;11.80;99.20;;;;;;5057726;28;20172;-80
2021/04/30 11:02:14;;;;;;;1999.90;999.90;;;12.10;99.30;;;;;;5057024;28;20153;-80
2021/04/30 11:04:39;;;;;;;1999.90;999.90;;;12.20;99.00;;;;;;5056470;28;20180;-80
2021/04/30 11:07:08;;;;;;;1999.90;999.90;;;12.30;97.20;;;;;;5056405;28;20284;-80
2021/04/30 11:09:40;;;;;;;1999.90;999.90;;;12.30;97.10;;;;;;5056770;28;20192;-80
2021/04/30 11:12:23;;;;;;;1999.90;999.90;;;12.20;97.80;;;;;;5056352;28;20602;-80
2021/04/30 11:15:10;;;;;;;1999.90;999.90;;;12.20;97.20;;;;;;5057772;28;20178;-80
2021/04/30 11:17:59;;;;;;;1999.90;999.90;;;12.30;97.80;;;;;;5056259;28;20196;-80
2021/04/30 11:20:28;;;;;;;1999.90;999.90;;;12.40;99.70;;;;;;5057495;28;20160;-80
2021/04/30 11:23:13;;;;;;;1999.90;999.90;;;12.70;97.80;;;;;;5056392;28;20248;-80
2021/04/30 11:25:57;;;;;;;1999.90;999.90;;;13.00;95.30;;;;;;5057342;28;20179;-80
2021/04/30 11:28:32;;;;;;;1999.90;999.90;;;13.10;93.90;;;;;;5057724;28;20706;-79
2021/04/30 11:31:06;;;;;;;1999.90;999.90;;;13.20;91.70;;;;;;5057852;28;20183;-80
2021/04/30 11:33:33;;;;;;;1999.90;999.90;;;13.00;93.80;;;;;;5056208;28;20175;-80
2021/04/30 11:36:00;;;;;;;1999.90;999.90;;;13.20;93.00;;;;;;5056942;28;20172;-80
2021/04/30 11:38:38;;;;;;;1999.90;999.90;;;13.30;91.10;;;;;;5058077;28;20447;-81
2021/04/30 11:41:09;;;;;;;1999.90;999.90;;;13.50;91.30;;;;;;5057973;28;20653;-81
2021/04/30 11:43:36;;;;;;;1999.90;999.90;;;13.60;88.30;;;;;;5057699;28;20149;-80
2021/04/30 11:46:02;;;;;;;1999.90;999.90;;;13.70;88.80;;;;;;5057997;28;20247;-82
2021/04/30 11:48:29;;;;;;;1999.90;999.90;;;13.80;85.50;;;;;;5056188;28;20992;-81
2021/04/30 11:51:07;;;;;;;1999.90;999.90;;;13.50;87.50;;;;;;5057768;28;20403;-81
2021/04/30 11:53:34;;;;;;;1999.90;999.90;;;13.60;88.70;;;;;;5057531;28;20164;-80
2021/04/30 11:56:04;;;;;;;1999.90;999.90;;;13.70;86.30;;;;;;5058054;28;20172;-81
2021/04/30 11:58:37;;;;;;;1999.90;999.90;;;13.60;84.70;;;;;;5057278;28;20271;-81
2021/04/30 12:01:07;;;;;;;1999.90;999.90;;;13.50;83.90;;;;;;5056601;28;20410;-81
2021/04/30 12:03:54;;;;;;;1999.90;999.90;;;13.60;82.70;;;;;;5058350;28;20403;-81
2021/04/30 12:06:28;;;;;;;1999.90;999.90;;;13.60;81.00;;;;;;5056784;28;20148;-82
2021/04/30 12:08:55;;;;;;;1999.90;999.90;;;13.50;81.80;;;;;;5056371;28;20395;-82
2021/04/30 12:11:23;;;;;;;1999.90;999.90;;;13.40;82.20;;;;;;5056135;28;20434;-81